sensor_id;sensor_type;location;lat;lon;timestamp;P1;durP1;ratioP1;P2;durP2;ratioP2
9729;SDS011;4904;49.152;11.004;2022-11-20T00:01:25;14.67;;;12.30;;
9729;SDS011;4904;49.152;11.004;2022-11-20T00:03:53;14.87;;;12.13;;
9729;SDS011;4904;49.152;11.004;2022-11-20T00:06:22;16.23;;;12.63;;
9729;SDS011;4904;49.152;11.004;2022-11-20T00:08:50;15.47;;;12.83;;
9729;SDS011;4904;49.152;11.004;2022-11-20T00:11:21;15.07;;;11.97;;
9729;SDS011;4904;49.152;11.004;2022-11-20T00:13:50;14.77;;;12.17;;
9729;SDS011;4904;49.152;11.004;2022-11-20T00:16:19;16.40;;;12.47;;
9729;SDS011;4904;49.152;11.004;2022-11-20T00:18:47;15.47;;;12.60;;
9729;SDS011;4904;49.152;11.004;2022-11-20T00:21:15;16.53;;;12.37;;
9729;SDS011;4904;49.152;11.004;2022-11-20T00:23:43;14.33;;;12.33;;
9729;SDS011;4904;49.152;11.004;2022-11-20T00:26:11;15.97;;;12.40;;
9729;SDS011;4904;49.152;11.004;2022-11-20T00:28:41;16.03;;;13.13;;
9729;SDS011;4904;49.152;11.004;2022-11-20T00:31:09;15.37;;;12.70;;
9729;SDS011;4904;49.152;11.004;2022-11-20T00:33:37;17.67;;;13.63;;
9729;SDS011;4904;49.152;11.004;2022-11-20T00:36:05;14.60;;;12.27;;
9729;SDS011;4904;49.152;11.004;2022-11-20T00:38:33;16.73;;;13.00;;
9729;SDS011;4904;49.152;11.004;2022-11-20T00:41:01;19.77;;;13.17;;
9729;SDS011;4904;49.152;11.004;2022-11-20T00:43:30;17.00;;;13.57;;
9729;SDS011;4904;49.152;11.004;2022-11-20T00:45:58;17.27;;;12.80;;
9729;SDS011;4904;49.152;11.004;2022-11-20T00:48:26;16.23;;;13.10;;
9729;SDS011;4904;49.152;11.004;2022-11-20T00:50:53;15.23;;;13.03;;
9729;SDS011;4904;49.152;11.004;2022-11-20T00:53:20;16.10;;;13.07;;
9729;SDS011;4904;49.152;11.004;2022-11-20T00:55:54;16.33;;;12.10;;
9729;SDS011;4904;49.152;11.004;2022-11-20T00:58:21;16.90;;;13.07;;
9729;SDS011;4904;49.152;11.004;2022-11-20T01:00:49;16.40;;;12.97;;
9729;SDS011;4904;49.152;11.004;2022-11-20T01:03:17;16.33;;;12.73;;
9729;SDS011;4904;49.152;11.004;2022-11-20T01:05:45;15.63;;;12.17;;
9729;SDS011;4904;49.152;11.004;2022-11-20T01:08:11;14.30;;;12.47;;
9729;SDS011;4904;49.152;11.004;2022-11-20T01:10:38;15.17;;;11.80;;
9729;SDS011;4904;49.152;11.004;2022-11-20T01:13:05;16.57;;;12.57;;
9729;SDS011;4904;49.152;11.004;2022-11-20T01:15:49;17.17;;;12.87;;
9729;SDS011;4904;49.152;11.004;2022-11-20T01:18:17;16.00;;;12.50;;
9729;SDS011;4904;49.152;11.004;2022-11-20T01:20:44;14.67;;;11.47;;
9729;SDS011;4904;49.152;11.004;2022-11-20T01:23:11;13.80;;;11.87;;
9729;SDS011;4904;49.152;11.004;2022-11-20T01:25:38;14.33;;;11.33;;
9729;SDS011;4904;49.152;11.004;2022-11-20T01:28:04;16.57;;;12.80;;
9729;SDS011;4904;49.152;11.004;2022-11-20T01:30:31;16.07;;;12.27;;
9729;SDS011;4904;49.152;11.004;2022-11-20T01:32:58;14.77;;;11.67;;
9729;SDS011;4904;49.152;11.004;2022-11-20T01:35:26;15.10;;;12.17;;
9729;SDS011;4904;49.152;11.004;2022-11-20T01:37:53;14.43;;;11.80;;
9729;SDS011;4904;49.152;11.004;2022-11-20T01:40:20;16.83;;;12.43;;
9729;SDS011;4904;49.152;11.004;2022-11-20T01:42:47;14.40;;;11.57;;
9729;SDS011;4904;49.152;11.004;2022-11-20T01:45:52;15.47;;;11.50;;
9729;SDS011;4904;49.152;11.004;2022-11-20T01:48:28;13.63;;;11.63;;
9729;SDS011;4904;49.152;11.004;2022-11-20T01:51:01;15.47;;;12.67;;
9729;SDS011;4904;49.152;11.004;2022-11-20T01:53:31;14.73;;;11.73;;
9729;SDS011;4904;49.152;11.004;2022-11-20T01:56:02;13.70;;;11.43;;
9729;SDS011;4904;49.152;11.004;2022-11-20T01:58:32;15.27;;;11.70;;
9729;SDS011;4904;49.152;11.004;2022-11-20T02:01:02;14.17;;;11.50;;
9729;SDS011;4904;49.152;11.004;2022-11-20T02:03:30;13.73;;;10.80;;
9729;SDS011;4904;49.152;11.004;2022-11-20T02:05:59;12.03;;;10.40;;
9729;SDS011;4904;49.152;11.004;2022-11-20T02:08:33;11.43;;;10.17;;
9729;SDS011;4904;49.152;11.004;2022-11-20T02:11:01;14.07;;;10.20;;
9729;SDS011;4904;49.152;11.004;2022-11-20T02:13:28;14.43;;;10.90;;
9729;SDS011;4904;49.152;11.004;2022-11-20T02:16:11;12.87;;;10.63;;
9729;SDS011;4904;49.152;11.004;2022-11-20T02:18:41;14.13;;;11.13;;
9729;SDS011;4904;49.152;11.004;2022-11-20T02:21:12;13.43;;;10.60;;
9729;SDS011;4904;49.152;11.004;2022-11-20T02:24:04;13.33;;;10.33;;
9729;SDS011;4904;49.152;11.004;2022-11-20T02:26:34;14.03;;;10.67;;
9729;SDS011;4904;49.152;11.004;2022-11-20T02:29:04;14.07;;;10.73;;
9729;SDS011;4904;49.152;11.004;2022-11-20T02:31:38;13.60;;;10.63;;
9729;SDS011;4904;49.152;11.004;2022-11-20T02:34:08;11.63;;;9.30;;
9729;SDS011;4904;49.152;11.004;2022-11-20T02:36:35;13.33;;;9.93;;
9729;SDS011;4904;49.152;11.004;2022-11-20T02:39:06;12.00;;;9.90;;
9729;SDS011;4904;49.152;11.004;2022-11-20T02:41:36;14.50;;;10.10;;
9729;SDS011;4904;49.152;11.004;2022-11-20T02:44:03;12.23;;;9.90;;
9729;SDS011;4904;49.152;11.004;2022-11-20T02:46:31;12.57;;;10.30;;
9729;SDS011;4904;49.152;11.004;2022-11-20T02:49:00;11.70;;;9.67;;
9729;SDS011;4904;49.152;11.004;2022-11-20T02:51:27;11.43;;;9.17;;
9729;SDS011;4904;49.152;11.004;2022-11-20T02:53:54;11.83;;;9.47;;
9729;SDS011;4904;49.152;11.004;2022-11-20T02:56:22;12.27;;;9.70;;
9729;SDS011;4904;49.152;11.004;2022-11-20T02:58:49;12.03;;;9.80;;
9729;SDS011;4904;49.152;11.004;2022-11-20T03:01:16;12.10;;;9.87;;
9729;SDS011;4904;49.152;11.004;2022-11-20T03:03:43;12.20;;;9.43;;
9729;SDS011;4904;49.152;11.004;2022-11-20T03:06:09;11.80;;;9.30;;
9729;SDS011;4904;49.152;11.004;2022-11-20T03:08:36;10.60;;;9.07;;
9729;SDS011;4904;49.152;11.004;2022-11-20T03:11:04;11.53;;;9.50;;
9729;SDS011;4904;49.152;11.004;2022-11-20T03:13:33;10.33;;;8.37;;
9729;SDS011;4904;49.152;11.004;2022-11-20T03:16:05;8.10;;;7.30;;
9729;SDS011;4904;49.152;11.004;2022-11-20T03:18:32;11.33;;;8.40;;
9729;SDS011;4904;49.152;11.004;2022-11-20T03:20:59;9.97;;;8.40;;
9729;SDS011;4904;49.152;11.004;2022-11-20T03:23:28;10.50;;;8.50;;
9729;SDS011;4904;49.152;11.004;2022-11-20T03:26:06;9.50;;;8.13;;
9729;SDS011;4904;49.152;11.004;2022-11-20T03:28:35;9.57;;;8.27;;
9729;SDS011;4904;49.152;11.004;2022-11-20T03:31:04;10.33;;;8.70;;
9729;SDS011;4904;49.152;11.004;2022-11-20T03:33:32;9.80;;;8.33;;
9729;SDS011;4904;49.152;11.004;2022-11-20T03:36:00;10.00;;;8.67;;
9729;SDS011;4904;49.152;11.004;2022-11-20T03:38:28;8.97;;;7.93;;
9729;SDS011;4904;49.152;11.004;2022-11-20T03:40:57;10.87;;;8.40;;
9729;SDS011;4904;49.152;11.004;2022-11-20T03:43:25;9.77;;;8.07;;
9729;SDS011;4904;49.152;11.004;2022-11-20T03:45:53;8.70;;;7.80;;
9729;SDS011;4904;49.152;11.004;2022-11-20T03:48:20;10.33;;;8.47;;
9729;SDS011;4904;49.152;11.004;2022-11-20T03:50:47;10.17;;;8.30;;
9729;SDS011;4904;49.152;11.004;2022-11-20T03:53:14;10.80;;;8.13;;
9729;SDS011;4904;49.152;11.004;2022-11-20T03:55:41;9.30;;;7.77;;
9729;SDS011;4904;49.152;11.004;2022-11-20T03:58:08;8.83;;;7.77;;
9729;SDS011;4904;49.152;11.004;2022-11-20T04:00:35;9.33;;;8.10;;
9729;SDS011;4904;49.152;11.004;2022-11-20T04:03:03;8.50;;;7.50;;
9729;SDS011;4904;49.152;11.004;2022-11-20T04:05:30;9.00;;;7.73;;
9729;SDS011;4904;49.152;11.004;2022-11-20T04:07:58;8.93;;;7.43;;
9729;SDS011;4904;49.152;11.004;2022-11-20T04:10:25;9.20;;;7.60;;
9729;SDS011;4904;49.152;11.004;2022-11-20T04:12:52;9.20;;;7.87;;
9729;SDS011;4904;49.152;11.004;2022-11-20T04:15:19;8.60;;;7.50;;
9729;SDS011;4904;49.152;11.004;2022-11-20T04:17:46;9.93;;;8.20;;
9729;SDS011;4904;49.152;11.004;2022-11-20T04:20:14;9.57;;;8.27;;
9729;SDS011;4904;49.152;11.004;2022-11-20T04:22:41;10.40;;;8.50;;
9729;SDS011;4904;49.152;11.004;2022-11-20T04:25:08;10.50;;;8.40;;
9729;SDS011;4904;49.152;11.004;2022-11-20T04:27:35;9.40;;;8.10;;
9729;SDS011;4904;49.152;11.004;2022-11-20T04:30:01;9.13;;;7.97;;
9729;SDS011;4904;49.152;11.004;2022-11-20T04:32:29;9.60;;;8.50;;
9729;SDS011;4904;49.152;11.004;2022-11-20T04:34:55;10.07;;;8.67;;
9729;SDS011;4904;49.152;11.004;2022-11-20T04:37:24;9.33;;;8.33;;
9729;SDS011;4904;49.152;11.004;2022-11-20T04:39:50;9.33;;;8.23;;
9729;SDS011;4904;49.152;11.004;2022-11-20T04:42:17;9.37;;;8.37;;
9729;SDS011;4904;49.152;11.004;2022-11-20T04:44:58;9.93;;;8.63;;
9729;SDS011;4904;49.152;11.004;2022-11-20T04:47:25;11.50;;;9.13;;
9729;SDS011;4904;49.152;11.004;2022-11-20T04:49:51;9.03;;;8.13;;
9729;SDS011;4904;49.152;11.004;2022-11-20T04:52:18;8.80;;;7.90;;
9729;SDS011;4904;49.152;11.004;2022-11-20T04:54:46;10.63;;;8.10;;
9729;SDS011;4904;49.152;11.004;2022-11-20T04:57:14;9.57;;;8.47;;
9729;SDS011;4904;49.152;11.004;2022-11-20T04:59:41;8.90;;;8.00;;
9729;SDS011;4904;49.152;11.004;2022-11-20T05:02:08;8.23;;;7.43;;
9729;SDS011;4904;49.152;11.004;2022-11-20T05:04:35;8.93;;;8.03;;
9729;SDS011;4904;49.152;11.004;2022-11-20T05:07:02;8.87;;;7.80;;
9729;SDS011;4904;49.152;11.004;2022-11-20T05:09:29;8.43;;;7.63;;
9729;SDS011;4904;49.152;11.004;2022-11-20T05:11:58;9.67;;;7.53;;
9729;SDS011;4904;49.152;11.004;2022-11-20T05:14:24;7.50;;;6.70;;
9729;SDS011;4904;49.152;11.004;2022-11-20T05:16:51;8.50;;;7.60;;
9729;SDS011;4904;49.152;11.004;2022-11-20T05:19:18;8.30;;;6.97;;
9729;SDS011;4904;49.152;11.004;2022-11-20T05:21:45;9.53;;;7.80;;
9729;SDS011;4904;49.152;11.004;2022-11-20T05:24:12;8.97;;;8.07;;
9729;SDS011;4904;49.152;11.004;2022-11-20T05:26:39;8.73;;;7.93;;
9729;SDS011;4904;49.152;11.004;2022-11-20T05:29:09;9.70;;;8.80;;
9729;SDS011;4904;49.152;11.004;2022-11-20T05:31:36;9.40;;;7.73;;
9729;SDS011;4904;49.152;11.004;2022-11-20T05:34:02;9.13;;;7.93;;
9729;SDS011;4904;49.152;11.004;2022-11-20T05:36:29;9.33;;;8.00;;
9729;SDS011;4904;49.152;11.004;2022-11-20T05:38:56;10.80;;;8.47;;
9729;SDS011;4904;49.152;11.004;2022-11-20T05:41:23;11.27;;;9.57;;
9729;SDS011;4904;49.152;11.004;2022-11-20T05:43:50;10.07;;;8.97;;
9729;SDS011;4904;49.152;11.004;2022-11-20T05:46:19;10.07;;;8.97;;
9729;SDS011;4904;49.152;11.004;2022-11-20T05:48:47;10.00;;;8.67;;
9729;SDS011;4904;49.152;11.004;2022-11-20T05:51:14;10.17;;;8.77;;
9729;SDS011;4904;49.152;11.004;2022-11-20T05:53:42;9.80;;;8.80;;
9729;SDS011;4904;49.152;11.004;2022-11-20T05:56:10;12.93;;;10.03;;
9729;SDS011;4904;49.152;11.004;2022-11-20T05:58:39;12.30;;;9.40;;
9729;SDS011;4904;49.152;11.004;2022-11-20T06:01:07;12.23;;;9.80;;
9729;SDS011;4904;49.152;11.004;2022-11-20T06:03:37;11.30;;;9.13;;
9729;SDS011;4904;49.152;11.004;2022-11-20T06:06:05;11.47;;;9.67;;
9729;SDS011;4904;49.152;11.004;2022-11-20T06:08:32;11.73;;;9.73;;
9729;SDS011;4904;49.152;11.004;2022-11-20T06:11:02;11.33;;;9.87;;
9729;SDS011;4904;49.152;11.004;2022-11-20T06:13:30;13.87;;;11.53;;
9729;SDS011;4904;49.152;11.004;2022-11-20T06:15:57;14.13;;;12.30;;
9729;SDS011;4904;49.152;11.004;2022-11-20T06:18:25;16.03;;;12.17;;
9729;SDS011;4904;49.152;11.004;2022-11-20T06:21:00;9.53;;;8.33;;
9729;SDS011;4904;49.152;11.004;2022-11-20T06:23:28;9.07;;;6.87;;
9729;SDS011;4904;49.152;11.004;2022-11-20T06:25:56;8.30;;;6.70;;
9729;SDS011;4904;49.152;11.004;2022-11-20T06:28:23;10.13;;;6.97;;
9729;SDS011;4904;49.152;11.004;2022-11-20T06:30:49;7.87;;;6.57;;
9729;SDS011;4904;49.152;11.004;2022-11-20T06:33:16;11.40;;;9.30;;
9729;SDS011;4904;49.152;11.004;2022-11-20T06:35:43;12.43;;;9.27;;
9729;SDS011;4904;49.152;11.004;2022-11-20T06:38:11;10.10;;;8.63;;
9729;SDS011;4904;49.152;11.004;2022-11-20T06:40:39;11.47;;;9.07;;
9729;SDS011;4904;49.152;11.004;2022-11-20T06:43:06;10.40;;;9.20;;
9729;SDS011;4904;49.152;11.004;2022-11-20T06:45:33;10.30;;;8.63;;
9729;SDS011;4904;49.152;11.004;2022-11-20T06:48:00;11.13;;;9.00;;
9729;SDS011;4904;49.152;11.004;2022-11-20T06:50:27;10.20;;;9.10;;
9729;SDS011;4904;49.152;11.004;2022-11-20T06:52:54;10.30;;;8.80;;
9729;SDS011;4904;49.152;11.004;2022-11-20T06:55:22;9.57;;;8.43;;
9729;SDS011;4904;49.152;11.004;2022-11-20T06:57:50;9.90;;;8.87;;
9729;SDS011;4904;49.152;11.004;2022-11-20T07:00:17;11.10;;;9.30;;
9729;SDS011;4904;49.152;11.004;2022-11-20T07:02:44;11.73;;;8.97;;
9729;SDS011;4904;49.152;11.004;2022-11-20T07:05:10;10.27;;;9.17;;
9729;SDS011;4904;49.152;11.004;2022-11-20T07:07:37;9.07;;;7.83;;
9729;SDS011;4904;49.152;11.004;2022-11-20T07:10:04;10.07;;;8.90;;
9729;SDS011;4904;49.152;11.004;2022-11-20T07:12:33;10.33;;;8.20;;
9729;SDS011;4904;49.152;11.004;2022-11-20T07:15:00;9.50;;;8.30;;
9729;SDS011;4904;49.152;11.004;2022-11-20T07:17:27;8.90;;;7.20;;
9729;SDS011;4904;49.152;11.004;2022-11-20T07:19:53;8.17;;;6.73;;
9729;SDS011;4904;49.152;11.004;2022-11-20T07:22:21;6.80;;;5.67;;
9729;SDS011;4904;49.152;11.004;2022-11-20T07:24:47;11.40;;;6.23;;
9729;SDS011;4904;49.152;11.004;2022-11-20T07:27:14;6.90;;;6.20;;
9729;SDS011;4904;49.152;11.004;2022-11-20T07:29:42;6.43;;;5.47;;
9729;SDS011;4904;49.152;11.004;2022-11-20T07:32:09;7.40;;;5.30;;
9729;SDS011;4904;49.152;11.004;2022-11-20T07:34:36;6.63;;;5.57;;
9729;SDS011;4904;49.152;11.004;2022-11-20T07:37:03;6.20;;;5.50;;
9729;SDS011;4904;49.152;11.004;2022-11-20T07:39:29;6.57;;;5.83;;
9729;SDS011;4904;49.152;11.004;2022-11-20T07:41:56;6.50;;;5.90;;
9729;SDS011;4904;49.152;11.004;2022-11-20T07:44:23;6.13;;;4.70;;
9729;SDS011;4904;49.152;11.004;2022-11-20T07:46:51;5.40;;;4.87;;
9729;SDS011;4904;49.152;11.004;2022-11-20T07:49:18;6.60;;;4.93;;
9729;SDS011;4904;49.152;11.004;2022-11-20T07:51:45;5.47;;;4.97;;
9729;SDS011;4904;49.152;11.004;2022-11-20T07:54:12;5.33;;;4.83;;
9729;SDS011;4904;49.152;11.004;2022-11-20T07:56:39;4.93;;;4.50;;
9729;SDS011;4904;49.152;11.004;2022-11-20T07:59:05;3.87;;;3.57;;
9729;SDS011;4904;49.152;11.004;2022-11-20T08:01:32;4.13;;;3.73;;
9729;SDS011;4904;49.152;11.004;2022-11-20T08:04:00;5.30;;;4.80;;
9729;SDS011;4904;49.152;11.004;2022-11-20T08:06:27;4.33;;;4.00;;
9729;SDS011;4904;49.152;11.004;2022-11-20T08:08:54;5.13;;;4.73;;
9729;SDS011;4904;49.152;11.004;2022-11-20T08:11:21;4.33;;;4.03;;
9729;SDS011;4904;49.152;11.004;2022-11-20T08:14:05;4.83;;;4.43;;
9729;SDS011;4904;49.152;11.004;2022-11-20T08:16:38;3.87;;;3.53;;
9729;SDS011;4904;49.152;11.004;2022-11-20T08:19:07;3.90;;;3.47;;
9729;SDS011;4904;49.152;11.004;2022-11-20T08:21:34;3.87;;;3.57;;
9729;SDS011;4904;49.152;11.004;2022-11-20T08:24:01;3.70;;;3.40;;
9729;SDS011;4904;49.152;11.004;2022-11-20T08:26:28;4.50;;;3.97;;
9729;SDS011;4904;49.152;11.004;2022-11-20T08:28:55;4.07;;;3.77;;
9729;SDS011;4904;49.152;11.004;2022-11-20T08:31:22;4.73;;;3.17;;
9729;SDS011;4904;49.152;11.004;2022-11-20T08:33:50;3.57;;;3.13;;
9729;SDS011;4904;49.152;11.004;2022-11-20T08:36:19;3.40;;;3.03;;
9729;SDS011;4904;49.152;11.004;2022-11-20T08:38:47;4.03;;;2.77;;
9729;SDS011;4904;49.152;11.004;2022-11-20T08:41:14;3.07;;;2.87;;
9729;SDS011;4904;49.152;11.004;2022-11-20T08:43:52;2.90;;;2.60;;
9729;SDS011;4904;49.152;11.004;2022-11-20T08:46:21;2.93;;;2.60;;
9729;SDS011;4904;49.152;11.004;2022-11-20T08:48:48;2.80;;;2.60;;
9729;SDS011;4904;49.152;11.004;2022-11-20T08:51:15;3.50;;;3.20;;
9729;SDS011;4904;49.152;11.004;2022-11-20T08:53:43;5.17;;;3.90;;
9729;SDS011;4904;49.152;11.004;2022-11-20T08:56:10;5.17;;;4.67;;
9729;SDS011;4904;49.152;11.004;2022-11-20T08:58:37;4.87;;;4.10;;
9729;SDS011;4904;49.152;11.004;2022-11-20T09:01:04;4.30;;;3.90;;
9729;SDS011;4904;49.152;11.004;2022-11-20T09:03:31;4.40;;;4.00;;
9729;SDS011;4904;49.152;11.004;2022-11-20T09:05:58;5.40;;;4.50;;
9729;SDS011;4904;49.152;11.004;2022-11-20T09:08:26;5.40;;;4.87;;
9729;SDS011;4904;49.152;11.004;2022-11-20T09:10:55;4.70;;;4.20;;
9729;SDS011;4904;49.152;11.004;2022-11-20T09:13:22;5.67;;;4.63;;
9729;SDS011;4904;49.152;11.004;2022-11-20T09:15:52;4.53;;;4.13;;
9729;SDS011;4904;49.152;11.004;2022-11-20T09:18:21;4.97;;;4.43;;
9729;SDS011;4904;49.152;11.004;2022-11-20T09:20:48;5.30;;;4.80;;
9729;SDS011;4904;49.152;11.004;2022-11-20T09:23:15;5.43;;;4.93;;
9729;SDS011;4904;49.152;11.004;2022-11-20T09:25:42;5.20;;;4.63;;
9729;SDS011;4904;49.152;11.004;2022-11-20T09:28:10;5.33;;;4.40;;
9729;SDS011;4904;49.152;11.004;2022-11-20T09:30:37;5.10;;;4.60;;
9729;SDS011;4904;49.152;11.004;2022-11-20T09:33:04;4.93;;;4.40;;
9729;SDS011;4904;49.152;11.004;2022-11-20T09:35:32;4.43;;;4.03;;
9729;SDS011;4904;49.152;11.004;2022-11-20T09:38:03;4.43;;;3.87;;
9729;SDS011;4904;49.152;11.004;2022-11-20T09:40:31;4.93;;;4.13;;
9729;SDS011;4904;49.152;11.004;2022-11-20T09:42:59;5.90;;;4.70;;
9729;SDS011;4904;49.152;11.004;2022-11-20T09:45:35;5.97;;;4.53;;
9729;SDS011;4904;49.152;11.004;2022-11-20T09:48:13;5.03;;;4.53;;
9729;SDS011;4904;49.152;11.004;2022-11-20T09:50:47;5.23;;;4.73;;
9729;SDS011;4904;49.152;11.004;2022-11-20T09:53:22;5.87;;;4.77;;
9729;SDS011;4904;49.152;11.004;2022-11-20T09:55:54;5.17;;;4.67;;
9729;SDS011;4904;49.152;11.004;2022-11-20T09:58:25;7.53;;;4.57;;
9729;SDS011;4904;49.152;11.004;2022-11-20T10:01:00;4.53;;;4.13;;
9729;SDS011;4904;49.152;11.004;2022-11-20T10:03:37;3.90;;;3.37;;
9729;SDS011;4904;49.152;11.004;2022-11-20T10:06:08;5.13;;;4.50;;
9729;SDS011;4904;49.152;11.004;2022-11-20T10:08:40;4.50;;;4.10;;
9729;SDS011;4904;49.152;11.004;2022-11-20T10:11:12;5.38;;;4.60;;
9729;SDS011;4904;49.152;11.004;2022-11-20T10:13:47;3.97;;;3.50;;
9729;SDS011;4904;49.152;11.004;2022-11-20T10:16:29;5.47;;;4.50;;
9729;SDS011;4904;49.152;11.004;2022-11-20T10:19:05;7.03;;;5.30;;
9729;SDS011;4904;49.152;11.004;2022-11-20T10:21:45;7.03;;;5.33;;
9729;SDS011;4904;49.152;11.004;2022-11-20T10:27:16;7.50;;;6.37;;
9729;SDS011;4904;49.152;11.004;2022-11-20T10:29:58;5.77;;;4.50;;
9729;SDS011;4904;49.152;11.004;2022-11-20T10:32:30;6.70;;;5.47;;
9729;SDS011;4904;49.152;11.004;2022-11-20T10:35:04;4.97;;;4.00;;
9729;SDS011;4904;49.152;11.004;2022-11-20T10:37:37;5.83;;;4.20;;
9729;SDS011;4904;49.152;11.004;2022-11-20T10:40:14;4.57;;;4.03;;
9729;SDS011;4904;49.152;11.004;2022-11-20T10:42:49;4.40;;;4.00;;
9729;SDS011;4904;49.152;11.004;2022-11-20T10:45:21;4.00;;;3.60;;
9729;SDS011;4904;49.152;11.004;2022-11-20T10:48:10;6.30;;;5.50;;
9729;SDS011;4904;49.152;11.004;2022-11-20T10:50:44;3.50;;;3.20;;
9729;SDS011;4904;49.152;11.004;2022-11-20T10:53:27;4.30;;;3.60;;
9729;SDS011;4904;49.152;11.004;2022-11-20T10:56:07;3.40;;;2.93;;
9729;SDS011;4904;49.152;11.004;2022-11-20T10:58:42;3.47;;;3.17;;
9729;SDS011;4904;49.152;11.004;2022-11-20T11:01:16;3.60;;;3.30;;
9729;SDS011;4904;49.152;11.004;2022-11-20T11:03:47;3.60;;;2.93;;
9729;SDS011;4904;49.152;11.004;2022-11-20T11:06:17;3.10;;;2.80;;
9729;SDS011;4904;49.152;11.004;2022-11-20T11:08:50;2.80;;;2.60;;
9729;SDS011;4904;49.152;11.004;2022-11-20T11:11:21;4.90;;;4.50;;
9729;SDS011;4904;49.152;11.004;2022-11-20T11:13:50;2.83;;;2.63;;
9729;SDS011;4904;49.152;11.004;2022-11-20T11:16:20;2.40;;;2.20;;
9729;SDS011;4904;49.152;11.004;2022-11-20T11:18:50;2.67;;;2.47;;
9729;SDS011;4904;49.152;11.004;2022-11-20T11:21:24;2.33;;;2.00;;
9729;SDS011;4904;49.152;11.004;2022-11-20T11:23:58;2.33;;;2.13;;
9729;SDS011;4904;49.152;11.004;2022-11-20T11:26:26;2.50;;;2.30;;
9729;SDS011;4904;49.152;11.004;2022-11-20T11:28:54;2.93;;;2.57;;
9729;SDS011;4904;49.152;11.004;2022-11-20T11:31:22;2.30;;;2.10;;
9729;SDS011;4904;49.152;11.004;2022-11-20T11:33:51;2.47;;;2.03;;
9729;SDS011;4904;49.152;11.004;2022-11-20T11:36:20;2.40;;;2.20;;
9729;SDS011;4904;49.152;11.004;2022-11-20T11:38:50;2.87;;;2.50;;
9729;SDS011;4904;49.152;11.004;2022-11-20T11:41:20;2.40;;;2.20;;
9729;SDS011;4904;49.152;11.004;2022-11-20T11:43:51;2.07;;;1.97;;
9729;SDS011;4904;49.152;11.004;2022-11-20T11:46:37;2.67;;;2.47;;
9729;SDS011;4904;49.152;11.004;2022-11-20T11:49:17;2.10;;;1.90;;
9729;SDS011;4904;49.152;11.004;2022-11-20T11:51:47;2.27;;;2.00;;
9729;SDS011;4904;49.152;11.004;2022-11-20T11:54:26;2.30;;;2.10;;
9729;SDS011;4904;49.152;11.004;2022-11-20T11:56:58;2.77;;;2.57;;
9729;SDS011;4904;49.152;11.004;2022-11-20T11:59:35;1.97;;;1.87;;
9729;SDS011;4904;49.152;11.004;2022-11-20T12:02:13;2.20;;;2.10;;
9729;SDS011;4904;49.152;11.004;2022-11-20T12:04:58;2.67;;;2.47;;
9729;SDS011;4904;49.152;11.004;2022-11-20T12:07:33;3.50;;;2.13;;
9729;SDS011;4904;49.152;11.004;2022-11-20T12:10:12;3.23;;;2.73;;
9729;SDS011;4904;49.152;11.004;2022-11-20T12:12:44;2.20;;;2.00;;
9729;SDS011;4904;49.152;11.004;2022-11-20T12:15:16;3.97;;;2.40;;
9729;SDS011;4904;49.152;11.004;2022-11-20T12:17:52;2.80;;;2.60;;
9729;SDS011;4904;49.152;11.004;2022-11-20T12:20:20;1.87;;;1.77;;
9729;SDS011;4904;49.152;11.004;2022-11-20T12:22:53;2.30;;;2.10;;
9729;SDS011;4904;49.152;11.004;2022-11-20T12:25:26;2.27;;;2.07;;
9729;SDS011;4904;49.152;11.004;2022-11-20T12:30:54;2.23;;;2.07;;
9729;SDS011;4904;49.152;11.004;2022-11-20T12:36:40;2.83;;;2.20;;
9729;SDS011;4904;49.152;11.004;2022-11-20T12:39:15;2.00;;;1.90;;
9729;SDS011;4904;49.152;11.004;2022-11-20T12:42:05;2.10;;;2.00;;
9729;SDS011;4904;49.152;11.004;2022-11-20T12:45:18;2.40;;;2.20;;
9729;SDS011;4904;49.152;11.004;2022-11-20T12:48:00;2.27;;;2.13;;
9729;SDS011;4904;49.152;11.004;2022-11-20T12:50:43;4.60;;;3.60;;
9729;SDS011;4904;49.152;11.004;2022-11-20T12:53:22;2.97;;;2.77;;
9729;SDS011;4904;49.152;11.004;2022-11-20T12:55:56;3.10;;;2.80;;
9729;SDS011;4904;49.152;11.004;2022-11-20T12:58:33;3.37;;;3.17;;
9729;SDS011;4904;49.152;11.004;2022-11-20T13:01:12;2.45;;;2.25;;
9729;SDS011;4904;49.152;11.004;2022-11-20T13:04:01;2.43;;;2.23;;
9729;SDS011;4904;49.152;11.004;2022-11-20T13:06:38;2.40;;;2.20;;
9729;SDS011;4904;49.152;11.004;2022-11-20T13:09:08;4.33;;;4.00;;
9729;SDS011;4904;49.152;11.004;2022-11-20T13:11:40;5.30;;;4.78;;
9729;SDS011;4904;49.152;11.004;2022-11-20T13:14:18;2.90;;;2.70;;
9729;SDS011;4904;49.152;11.004;2022-11-20T13:16:53;3.00;;;2.80;;
9729;SDS011;4904;49.152;11.004;2022-11-20T13:19:24;3.33;;;3.03;;
9729;SDS011;4904;49.152;11.004;2022-11-20T13:21:52;3.17;;;2.97;;
9729;SDS011;4904;49.152;11.004;2022-11-20T13:24:24;2.93;;;2.73;;
9729;SDS011;4904;49.152;11.004;2022-11-20T13:29:46;3.83;;;3.00;;
9729;SDS011;4904;49.152;11.004;2022-11-20T13:32:24;3.50;;;3.20;;
9729;SDS011;4904;49.152;11.004;2022-11-20T13:34:53;3.27;;;2.97;;
9729;SDS011;4904;49.152;11.004;2022-11-20T13:37:24;3.00;;;2.80;;
9729;SDS011;4904;49.152;11.004;2022-11-20T13:40:05;2.60;;;2.40;;
9729;SDS011;4904;49.152;11.004;2022-11-20T13:42:39;3.27;;;2.60;;
9729;SDS011;4904;49.152;11.004;2022-11-20T13:45:11;2.20;;;1.93;;
9729;SDS011;4904;49.152;11.004;2022-11-20T13:47:47;3.25;;;2.72;;
9729;SDS011;4904;49.152;11.004;2022-11-20T13:50:16;2.38;;;2.17;;
9729;SDS011;4904;49.152;11.004;2022-11-20T13:52:45;2.40;;;2.20;;
9729;SDS011;4904;49.152;11.004;2022-11-20T13:55:23;2.20;;;2.10;;
9729;SDS011;4904;49.152;11.004;2022-11-20T13:58:11;2.60;;;2.40;;
9729;SDS011;4904;49.152;11.004;2022-11-20T14:00:50;2.37;;;2.17;;
9729;SDS011;4904;49.152;11.004;2022-11-20T14:03:22;2.03;;;1.90;;
9729;SDS011;4904;49.152;11.004;2022-11-20T14:05:51;2.15;;;1.95;;
9729;SDS011;4904;49.152;11.004;2022-11-20T14:08:32;2.60;;;2.20;;
9729;SDS011;4904;49.152;11.004;2022-11-20T14:11:11;2.58;;;2.10;;
9729;SDS011;4904;49.152;11.004;2022-11-20T14:13:50;1.77;;;1.67;;
9729;SDS011;4904;49.152;11.004;2022-11-20T14:16:22;2.40;;;2.20;;
9729;SDS011;4904;49.152;11.004;2022-11-20T14:18:49;3.00;;;2.80;;
9729;SDS011;4904;49.152;11.004;2022-11-20T14:21:23;3.03;;;2.83;;
9729;SDS011;4904;49.152;11.004;2022-11-20T14:24:02;3.10;;;2.90;;
9729;SDS011;4904;49.152;11.004;2022-11-20T14:26:31;3.27;;;2.37;;
9729;SDS011;4904;49.152;11.004;2022-11-20T14:28:59;2.40;;;2.20;;
9729;SDS011;4904;49.152;11.004;2022-11-20T14:31:26;2.78;;;2.58;;
9729;SDS011;4904;49.152;11.004;2022-11-20T14:33:54;1.93;;;1.83;;
9729;SDS011;4904;49.152;11.004;2022-11-20T14:36:23;2.20;;;1.90;;
9729;SDS011;4904;49.152;11.004;2022-11-20T14:38:51;2.87;;;2.30;;
9729;SDS011;4904;49.152;11.004;2022-11-20T14:41:20;2.30;;;2.00;;
9729;SDS011;4904;49.152;11.004;2022-11-20T14:43:50;2.37;;;1.97;;
9729;SDS011;4904;49.152;11.004;2022-11-20T14:46:20;3.00;;;1.87;;
9729;SDS011;4904;49.152;11.004;2022-11-20T14:48:48;2.67;;;2.30;;
9729;SDS011;4904;49.152;11.004;2022-11-20T14:51:24;3.60;;;2.33;;
9729;SDS011;4904;49.152;11.004;2022-11-20T14:53:54;2.73;;;2.27;;
9729;SDS011;4904;49.152;11.004;2022-11-20T14:56:21;2.50;;;2.25;;
9729;SDS011;4904;49.152;11.004;2022-11-20T14:58:56;2.63;;;2.38;;
9729;SDS011;4904;49.152;11.004;2022-11-20T15:01:27;3.35;;;2.03;;
9729;SDS011;4904;49.152;11.004;2022-11-20T15:03:59;2.72;;;2.38;;
9729;SDS011;4904;49.152;11.004;2022-11-20T15:06:28;3.85;;;2.55;;
9729;SDS011;4904;49.152;11.004;2022-11-20T15:08:56;3.92;;;2.30;;
9729;SDS011;4904;49.152;11.004;2022-11-20T15:11:27;2.42;;;2.22;;
9729;SDS011;4904;49.152;11.004;2022-11-20T15:13:57;2.90;;;2.60;;
9729;SDS011;4904;49.152;11.004;2022-11-20T15:16:27;2.92;;;2.53;;
9729;SDS011;4904;49.152;11.004;2022-11-20T15:18:54;3.28;;;2.13;;
9729;SDS011;4904;49.152;11.004;2022-11-20T15:21:21;3.43;;;2.90;;
9729;SDS011;4904;49.152;11.004;2022-11-20T15:23:49;4.17;;;3.50;;
9729;SDS011;4904;49.152;11.004;2022-11-20T15:26:18;3.83;;;2.87;;